Terminal Aerodrome Forecast
Issued by NWS Northern Indiana

Home | Current Version | Previous Version | Text Only | Print | Product List | Glossary On
Versions: 1 2 3 4 5 6 7 8 9 10 11 12 13 14 15
378
FTUS43 KIWX 231123
TAFFWA
TAF
KFWA 231123Z 2312/2412 25010KT P6SM SCT015
      TEMPO 2313/2317 BKN015
     FM231700 27008KT P6SM BKN035
     FM232300 08008KT P6SM VCSH SCT030 OVC080
     FM240500 14010KT 3SM -SHRA BR OVC015 WS020/21040KT=

USA.gov is the U.S. government's official web portal to all federal, state and local government web resources and services.